Time;durP1;ratioP1;P1;durP2;ratioP2;P2;SDS_P1;SDS_P2;PMS_P1;PMS_P2;Temp;Humidity;BMP_temperature;BMP_pressure;BME280_temperature;BME280_humidity;BME280_pressure;Samples;Min_cycle;Max_cycle;Signal;HPM_P1;HPM_P2
2022/02/13 00:02:06;;;;;;;29.43;17.27;;;;;;;-2.21;85.32;101495.50;4976097;28;20030;-80
2022/02/13 00:04:34;;;;;;;32.93;20.63;;;;;;;-2.22;85.84;101496.31;4988027;28;20049;-79
2022/02/13 00:06:59;;;;;;;34.17;19.40;;;;;;;-2.30;85.56;101496.66;4990784;28;20041;-78
2022/02/13 00:09:25;;;;;;;34.90;20.47;;;;;;;-2.39;85.73;101494.41;4990037;28;20065;-80
2022/02/13 00:11:50;;;;;;;31.53;18.47;;;;;;;-2.45;85.89;101491.44;5006611;28;20038;-80
2022/02/13 00:14:15;;;;;;;34.07;19.37;;;;;;;-2.47;86.23;101493.03;4968756;28;20403;-80
2022/02/13 00:16:41;;;;;;;33.40;19.07;;;;;;;-2.45;85.73;101475.94;4990624;28;20569;-80
2022/02/13 00:19:07;;;;;;;33.83;18.00;;;;;;;-2.47;86.10;101468.06;5006518;28;20038;-79
2022/02/13 00:21:32;;;;;;;29.43;17.73;;;;;;;-2.49;85.36;101459.34;5007244;28;20046;-80
2022/02/13 00:23:58;;;;;;;32.53;17.90;;;;;;;-2.51;85.69;101457.47;5008082;28;20030;-79
2022/02/13 00:26:23;;;;;;;30.67;18.37;;;;;;;-2.53;86.07;101456.47;5004822;28;20025;-80
2022/02/13 00:28:49;;;;;;;34.13;20.03;;;;;;;-2.54;85.76;101446.91;4989417;28;20042;-80
2022/02/13 00:31:14;;;;;;;29.10;17.10;;;;;;;-2.56;85.62;101443.38;5008064;28;20034;-78
2022/02/13 00:33:40;;;;;;;28.70;17.87;;;;;;;-2.55;86.24;101442.56;4975886;28;20041;-80
2022/02/13 00:36:06;;;;;;;32.17;17.63;;;;;;;-2.56;86.01;101435.63;5004028;28;20038;-80
2022/02/13 00:38:32;;;;;;;30.17;17.80;;;;;;;-2.57;86.33;101432.13;4984653;28;20517;-80
2022/02/13 00:40:57;;;;;;;28.77;16.23;;;;;;;-2.55;85.95;101422.78;5007707;28;20038;-80
2022/02/13 00:43:22;;;;;;;28.67;17.00;;;;;;;-2.52;86.36;101416.91;4989638;28;20084;-79
2022/02/13 00:45:48;;;;;;;29.20;16.57;;;;;;;-2.50;85.83;101415.31;5005559;28;20043;-80
2022/02/13 00:48:13;;;;;;;34.90;18.80;;;;;;;-2.49;85.82;101406.75;5008912;28;20045;-80
2022/02/13 00:50:39;;;;;;;31.23;18.13;;;;;;;-2.48;86.25;101396.50;5006223;28;20049;-80
2022/02/13 00:53:05;;;;;;;25.93;16.47;;;;;;;-2.44;86.41;101392.41;5007141;28;20095;-79
2022/02/13 00:55:31;;;;;;;24.73;15.10;;;;;;;-2.40;86.28;101396.97;4958398;28;20045;-79
2022/02/13 00:57:57;;;;;;;26.43;15.10;;;;;;;-2.33;86.59;101393.94;5005675;28;20042;-80
2022/02/13 01:00:23;;;;;;;28.10;16.63;;;;;;;-2.27;87.16;101403.75;5002081;28;20038;-80
2022/02/13 01:02:49;;;;;;;27.30;15.73;;;;;;;-2.30;86.81;101404.47;4988581;28;20417;-80
2022/02/13 01:05:15;;;;;;;30.10;16.53;;;;;;;-2.30;86.34;101406.16;5006011;28;20594;-80
2022/02/13 01:07:40;;;;;;;26.40;14.60;;;;;;;-2.28;86.32;101396.78;4968418;28;20034;-80
2022/02/13 01:10:07;;;;;;;25.30;14.93;;;;;;;-2.28;86.11;101395.13;4989897;28;20505;-80
2022/02/13 01:12:32;;;;;;;26.77;15.90;;;;;;;-2.30;85.76;101388.97;5005542;28;20030;-80
2022/02/13 01:14:57;;;;;;;27.73;15.80;;;;;;;-2.31;86.12;101389.75;5005151;28;20479;-78
2022/02/13 01:17:23;;;;;;;24.53;14.97;;;;;;;-2.31;85.90;101376.81;4991094;28;20517;-80
2022/02/13 01:19:49;;;;;;;23.23;13.33;;;;;;;-2.30;85.58;101378.63;4987110;28;20469;-78
2022/02/13 01:22:14;;;;;;;28.00;14.67;;;;;;;-2.33;84.90;101378.44;5006509;28;20064;-80
2022/02/13 01:24:40;;;;;;;26.10;14.30;;;;;;;-2.32;85.46;101374.16;4988590;28;20034;-79
2022/02/13 01:27:05;;;;;;;26.80;14.97;;;;;;;-2.29;85.70;101379.50;5005082;28;20070;-79
2022/02/13 01:29:31;;;;;;;25.27;14.70;;;;;;;-2.31;85.77;101371.63;5007960;28;20034;-80
2022/02/13 01:31:56;;;;;;;23.63;13.70;;;;;;;-2.37;85.29;101371.28;4991363;28;20042;-79
2022/02/13 01:34:21;;;;;;;23.27;13.63;;;;;;;-2.39;86.03;101367.72;5005571;28;20091;-80
2022/02/13 01:36:47;;;;;;;23.10;13.77;;;;;;;-2.42;85.53;101367.53;4989444;28;20095;-80
2022/02/13 01:39:13;;;;;;;22.83;12.37;;;;;;;-2.46;85.58;101366.47;4990287;28;20038;-80
2022/02/13 01:41:39;;;;;;;19.73;12.33;;;;;;;-2.48;85.95;101362.00;4972489;28;20034;-80
2022/02/13 01:44:04;;;;;;;21.70;12.93;;;;;;;-2.49;85.69;101361.13;4991503;28;20056;-80
2022/02/13 01:46:30;;;;;;;22.83;13.07;;;;;;;-2.46;85.34;101360.41;4990680;28;20043;-80
2022/02/13 01:48:56;;;;;;;21.03;12.23;;;;;;;-2.46;85.41;101350.09;5007986;28;20684;-80
2022/02/13 01:51:23;;;;;;;19.30;11.70;;;;;;;-2.47;85.81;101338.81;4991851;28;20053;-80
2022/02/13 01:53:49;;;;;;;23.77;12.00;;;;;;;-2.48;85.66;101337.06;4987387;28;20523;-78
2022/02/13 01:56:15;;;;;;;21.27;11.67;;;;;;;-2.46;85.70;101345.78;4991051;28;20034;-79
2022/02/13 01:58:41;;;;;;;24.60;14.10;;;;;;;-2.48;84.96;101341.34;5007358;28;20518;-80
2022/02/13 02:01:09;;;;;;;19.37;12.37;;;;;;;-2.53;85.48;101345.34;4973056;28;20121;-79
2022/02/13 02:03:36;;;;;;;19.13;11.97;;;;;;;-2.57;85.31;101348.53;4991720;28;20034;-80
2022/02/13 02:06:01;;;;;;;18.17;11.97;;;;;;;-2.60;85.20;101345.75;4989823;28;20037;-79
2022/02/13 02:08:27;;;;;;;21.03;12.23;;;;;;;-2.63;85.81;101340.41;5007130;28;20038;-79
2022/02/13 02:10:52;;;;;;;21.53;11.70;;;;;;;-2.67;85.99;101342.81;5008777;28;20056;-80
2022/02/13 02:13:17;;;;;;;19.37;11.13;;;;;;;-2.69;85.33;101335.78;5005982;28;20034;-80
2022/02/13 02:15:43;;;;;;;18.97;10.73;;;;;;;-2.71;85.54;101332.22;5007754;28;20498;-80
2022/02/13 02:18:09;;;;;;;19.73;11.57;;;;;;;-2.73;85.32;101332.09;4975523;28;20049;-78
2022/02/13 02:20:34;;;;;;;22.07;12.70;;;;;;;-2.74;85.46;101332.91;4989471;28;20046;-80
2022/02/13 02:22:59;;;;;;;18.77;10.67;;;;;;;-2.74;86.12;101314.81;5009196;28;20046;-79
2022/02/13 02:25:25;;;;;;;18.73;10.90;;;;;;;-2.75;86.60;101313.06;5006705;28;20030;-78
2022/02/13 02:27:50;;;;;;;17.17;11.40;;;;;;;-2.75;86.26;101315.63;4990068;28;20026;-80
2022/02/13 02:30:15;;;;;;;17.40;11.50;;;;;;;-2.72;86.19;101308.06;5008896;28;20053;-80
2022/02/13 02:32:41;;;;;;;16.97;10.83;;;;;;;-2.74;85.58;101311.34;5007304;28;20034;-79
2022/02/13 02:35:07;;;;;;;18.57;11.07;;;;;;;-2.75;86.76;101296.63;5011384;28;20030;-80
2022/02/13 02:37:32;;;;;;;20.90;13.03;;;;;;;-2.76;86.04;101306.09;4992769;28;20494;-80
2022/02/13 02:39:57;;;;;;;18.30;11.33;;;;;;;-2.70;86.32;101298.72;4994694;28;20526;-80
2022/02/13 02:42:23;;;;;;;19.33;11.47;;;;;;;-2.64;86.33;101293.03;5012804;28;20387;-80
2022/02/13 02:44:48;;;;;;;18.80;11.27;;;;;;;-2.56;86.10;101290.88;5010312;28;20042;-80
2022/02/13 02:47:13;;;;;;;19.30;11.07;;;;;;;-2.45;86.75;101282.06;5013602;28;20057;-79
2022/02/13 02:49:39;;;;;;;16.47;10.07;;;;;;;-2.28;86.80;101283.94;4994301;28;20038;-80
2022/02/13 02:52:05;;;;;;;17.67;10.33;;;;;;;-2.18;86.50;101287.91;5011432;28;20030;-80
2022/02/13 02:54:31;;;;;;;17.37;10.43;;;;;;;-2.05;86.28;101281.75;5011361;28;20096;-80
2022/02/13 02:56:56;;;;;;;15.27;9.47;;;;;;;-1.98;86.02;101274.41;5014450;28;20045;-79
2022/02/13 02:59:22;;;;;;;16.33;9.17;;;;;;;-1.90;85.83;101277.44;5013971;28;20038;-78
2022/02/13 03:01:47;;;;;;;18.10;9.90;;;;;;;-1.75;86.41;101274.81;5012795;28;20505;-80
2022/02/13 03:04:12;;;;;;;16.03;9.53;;;;;;;-1.63;85.81;101272.00;5010993;28;20038;-79
2022/02/13 03:06:38;;;;;;;17.57;10.50;;;;;;;-1.47;85.66;101271.13;5012740;28;20026;-79
2022/02/13 03:09:04;;;;;;;18.57;10.20;;;;;;;-1.33;85.67;101268.50;5005065;28;20046;-79
2022/02/13 03:11:29;;;;;;;15.93;9.83;;;;;;;-1.20;85.28;101270.03;5010505;28;20169;-80
2022/02/13 03:13:55;;;;;;;13.93;8.83;;;;;;;-1.12;84.69;101255.78;4979420;28;20490;-79
2022/02/13 03:16:21;;;;;;;16.60;8.90;;;;;;;-1.05;84.73;101264.75;5010408;28;20049;-81
2022/02/13 03:18:46;;;;;;;17.23;10.13;;;;;;;-0.99;84.42;101262.50;5010689;28;20405;-81
2022/02/13 03:21:12;;;;;;;14.67;9.00;;;;;;;-0.91;84.50;101252.53;4975218;28;20461;-81
2022/02/13 03:23:37;;;;;;;17.43;9.53;;;;;;;-0.85;83.89;101249.38;5009592;28;20670;-81
2022/02/13 03:26:02;;;;;;;13.57;9.37;;;;;;;-0.80;83.26;101245.31;5005390;28;20038;-81
2022/02/13 03:28:28;;;;;;;15.87;9.57;;;;;;;-0.75;83.51;101239.53;4986903;28;20476;-81
2022/02/13 03:30:53;;;;;;;15.20;9.60;;;;;;;-0.71;83.02;101235.41;5007716;28;20078;-81
2022/02/13 03:33:19;;;;;;;16.03;9.50;;;;;;;-0.60;82.90;101241.13;4991998;28;20029;-81
2022/02/13 03:35:44;;;;;;;16.03;9.37;;;;;;;-0.58;82.59;101232.59;5010412;28;20065;-81
2022/02/13 03:38:10;;;;;;;15.90;10.07;;;;;;;-0.56;82.54;101236.16;5013210;28;20467;-81
2022/02/13 03:40:35;;;;;;;15.50;9.57;;;;;;;-0.55;82.67;101235.38;4989843;28;20065;-81
2022/02/13 03:43:03;;;;;;;16.43;9.17;;;;;;;-0.59;82.26;101241.22;4992340;28;20134;-81
2022/02/13 03:45:28;;;;;;;15.60;8.70;;;;;;;-0.59;81.95;101236.03;4978881;28;20034;-82
2022/02/13 03:47:54;;;;;;;16.63;9.00;;;;;;;-0.65;81.87;101233.13;5006705;28;20035;-81
2022/02/13 03:50:19;;;;;;;13.93;8.60;;;;;;;-0.63;82.03;101234.06;4992373;28;20187;-81
2022/02/13 03:52:44;;;;;;;12.63;8.40;;;;;;;-0.60;81.54;101231.66;4990885;28;20077;-81
2022/02/13 03:55:16;;;;;;;14.93;8.67;;;;;;;-0.57;81.94;101229.22;5009219;28;20049;-81
2022/02/13 03:57:41;;;;;;;14.53;8.83;;;;;;;-0.62;81.74;101230.69;4991828;28;20088;-81
2022/02/13 04:00:07;;;;;;;16.70;10.37;;;;;;;-0.63;81.74;101222.81;5009723;28;20057;-81
2022/02/13 04:02:36;;;;;;;15.00;8.43;;;;;;;-0.63;81.65;101225.41;5008106;28;20121;-81
2022/02/13 04:05:02;;;;;;;16.53;9.23;;;;;;;-0.62;81.52;101219.44;5006174;28;20062;-81
2022/02/13 04:07:28;;;;;;;13.53;9.50;;;;;;;-0.58;81.84;101217.03;5006757;28;20037;-81
2022/02/13 04:09:55;;;;;;;15.37;9.97;;;;;;;-0.57;81.59;101216.25;4970099;28;20045;-81
2022/02/13 04:12:20;;;;;;;14.80;9.33;;;;;;;-0.58;81.08;101211.88;4991425;28;20040;-81
2022/02/13 04:14:46;;;;;;;15.17;9.23;;;;;;;-0.59;81.33;101215.28;5008121;28;20054;-81
2022/02/13 04:17:11;;;;;;;12.60;8.33;;;;;;;-0.61;81.15;101213.41;5006845;28;20061;-81
2022/02/13 04:19:37;;;;;;;13.73;8.53;;;;;;;-0.60;81.38;101210.00;4972981;28;20125;-81
2022/02/13 04:22:02;;;;;;;14.30;9.47;;;;;;;-0.60;81.24;101210.91;5013258;28;20509;-81
2022/02/13 04:24:27;;;;;;;11.93;7.67;;;;;;;-0.60;80.59;101213.50;4989975;28;20040;-81
2022/02/13 04:26:53;;;;;;;12.53;8.23;;;;;;;-0.61;80.74;101211.72;5008660;28;20080;-81
2022/02/13 04:29:19;;;;;;;14.43;9.07;;;;;;;-0.62;81.10;101214.25;4990481;28;20033;-81
2022/02/13 04:31:45;;;;;;;16.27;9.20;;;;;;;-0.66;80.95;101202.81;4988603;28;20045;-81
2022/02/13 04:34:11;;;;;;;17.10;9.33;;;;;;;-0.68;80.90;101205.34;5006992;28;20042;-81
2022/02/13 04:36:37;;;;;;;14.43;8.93;;;;;;;-0.72;80.51;101197.34;5008171;28;20042;-81
2022/02/13 04:39:05;;;;;;;15.13;8.03;;;;;;;-0.74;80.73;101201.56;5006944;28;20046;-81
2022/02/13 04:41:30;;;;;;;13.57;8.03;;;;;;;-0.77;80.90;101206.59;4991337;28;20097;-81
2022/02/13 04:43:56;;;;;;;15.07;9.23;;;;;;;-0.79;81.09;101203.91;5006669;28;20071;-82
2022/02/13 04:46:21;;;;;;;12.07;7.73;;;;;;;-0.80;80.92;101194.38;4973707;28;20040;-81
2022/02/13 04:48:47;;;;;;;14.67;8.67;;;;;;;-0.83;81.05;101186.44;4975623;28;20037;-81
2022/02/13 04:51:12;;;;;;;14.70;9.27;;;;;;;-0.80;81.04;101189.19;5006327;28;20042;-81
2022/02/13 04:53:37;;;;;;;13.37;8.27;;;;;;;-0.83;80.48;101189.03;5008956;28;20095;-81
2022/02/13 04:56:04;;;;;;;12.60;8.83;;;;;;;-0.85;80.64;101182.00;5007286;28;20046;-81
2022/02/13 04:58:31;;;;;;;13.90;8.77;;;;;;;-0.85;81.07;101184.59;5006526;28;20042;-81
2022/02/13 05:00:56;;;;;;;14.03;8.23;;;;;;;-0.90;80.80;101179.16;4992010;28;20037;-81
2022/02/13 05:03:23;;;;;;;15.60;8.50;;;;;;;-0.92;80.44;101183.38;4973786;28;20060;-81
2022/02/13 05:05:48;;;;;;;13.87;8.73;;;;;;;-0.96;80.95;101182.34;5007843;28;20802;-82
2022/02/13 05:08:13;;;;;;;14.77;8.57;;;;;;;-0.98;80.60;101176.19;5008561;28;20038;-81
2022/02/13 05:10:39;;;;;;;13.40;7.93;;;;;;;-1.01;80.42;101169.97;5009361;28;20040;-81
2022/02/13 05:13:04;;;;;;;13.87;8.00;;;;;;;-1.05;80.76;101175.78;5006012;28;20030;-81
2022/02/13 05:15:30;;;;;;;13.17;7.53;;;;;;;-1.08;80.70;101166.16;5008572;28;20030;-81
2022/02/13 05:17:55;;;;;;;14.60;8.93;;;;;;;-1.06;81.08;101168.84;5007699;28;20403;-81
2022/02/13 05:20:20;;;;;;;11.77;7.63;;;;;;;-1.02;80.83;101156.13;4989497;28;20046;-81
2022/02/13 05:22:45;;;;;;;14.67;9.10;;;;;;;-1.00;80.48;101151.00;4991622;28;20065;-81
2022/02/13 05:25:11;;;;;;;12.43;7.37;;;;;;;-1.01;81.02;101150.13;5005605;28;20034;-81
2022/02/13 05:27:36;;;;;;;12.53;8.30;;;;;;;-1.01;80.65;101152.72;5008591;28;20057;-82
2022/02/13 05:30:01;;;;;;;13.23;8.17;;;;;;;-1.05;80.62;101144.69;4975203;28;20039;-81
2022/02/13 05:32:29;;;;;;;14.70;8.57;;;;;;;-1.07;80.62;101142.03;5003841;28;20038;-81
2022/02/13 05:34:55;;;;;;;13.33;8.10;;;;;;;-1.11;81.15;101140.97;4988614;28;20074;-81
2022/02/13 05:37:20;;;;;;;15.60;8.30;;;;;;;-1.16;81.32;101142.44;5004871;28;20030;-81
2022/02/13 05:39:45;;;;;;;15.53;9.00;;;;;;;-1.17;81.04;101147.56;5007559;28;20061;-81
2022/02/13 05:42:11;;;;;;;13.57;8.70;;;;;;;-1.17;81.21;101135.50;5008331;28;20033;-81
2022/02/13 05:44:38;;;;;;;15.23;9.13;;;;;;;-1.19;80.83;101146.59;4988921;28;20029;-82
2022/02/13 05:47:04;;;;;;;14.33;8.57;;;;;;;-1.25;81.04;101134.22;5003564;28;20077;-81
2022/02/13 05:49:29;;;;;;;13.27;7.83;;;;;;;-1.30;81.11;101132.22;5008524;28;20112;-81
2022/02/13 05:51:54;;;;;;;14.80;7.90;;;;;;;-1.34;81.40;101137.25;5010433;28;20042;-81
2022/02/13 05:54:20;;;;;;;15.27;8.50;;;;;;;-1.37;81.41;101137.06;5010794;28;20124;-82
2022/02/13 05:56:46;;;;;;;15.83;9.17;;;;;;;-1.39;81.29;101133.53;4989140;28;20074;-81
2022/02/13 05:59:12;;;;;;;13.13;8.60;;;;;;;-1.40;81.58;101125.66;5009628;28;20053;-81
2022/02/13 06:01:38;;;;;;;12.33;8.30;;;;;;;-1.38;81.09;101135.28;5008451;28;20053;-81
2022/02/13 06:04:03;;;;;;;14.87;9.00;;;;;;;-1.42;81.51;101127.28;5009442;28;20144;-82
2022/02/13 06:06:29;;;;;;;14.43;9.10;;;;;;;-1.43;81.46;101130.69;4989950;28;20135;-82
2022/02/13 06:08:54;;;;;;;12.93;8.20;;;;;;;-1.49;81.41;101126.09;5013043;28;20033;-82
2022/02/13 06:11:20;;;;;;;15.63;8.70;;;;;;;-1.53;80.63;101125.84;5011471;28;20038;-82
2022/02/13 06:13:45;;;;;;;15.47;9.00;;;;;;;-1.59;80.88;101116.06;5014351;28;20048;-82
2022/02/13 06:16:10;;;;;;;13.27;8.30;;;;;;;-1.63;81.13;101111.53;4994648;28;20066;-82
2022/02/13 06:18:36;;;;;;;15.50;8.33;;;;;;;-1.67;81.25;101105.31;4975275;28;20039;-81
2022/02/13 06:21:03;;;;;;;13.73;8.67;;;;;;;-1.68;81.50;101106.09;5013624;28;20147;-82
2022/02/13 06:23:28;;;;;;;13.40;8.67;;;;;;;-1.71;81.72;101123.19;5012372;28;20050;-82
2022/02/13 06:25:54;;;;;;;14.77;8.30;;;;;;;-1.73;82.02;101115.31;5011755;28;20050;-82
2022/02/13 06:28:20;;;;;;;14.77;9.90;;;;;;;-1.67;81.99;101119.97;5014990;28;20453;-81
2022/02/13 06:30:45;;;;;;;13.07;8.57;;;;;;;-1.65;81.91;101118.31;5010244;28;20049;-81
2022/02/13 06:33:10;;;;;;;15.83;8.20;;;;;;;-1.66;81.67;101119.13;4979884;28;20061;-81
2022/02/13 06:35:36;;;;;;;18.23;9.47;;;;;;;-1.66;81.42;101117.44;4993762;28;20041;-81
2022/02/13 06:38:02;;;;;;;13.70;9.17;;;;;;;-1.64;81.74;101114.94;4973764;28;20031;-81
2022/02/13 06:40:28;;;;;;;16.03;8.20;;;;;;;-1.65;81.54;101108.88;5011153;28;20567;-81
2022/02/13 06:42:54;;;;;;;12.63;8.07;;;;;;;-1.62;81.34;101105.56;5013226;28;20093;-81
2022/02/13 06:45:19;;;;;;;14.80;8.70;;;;;;;-1.66;81.21;101104.50;5012275;28;20065;-81
2022/02/13 06:47:45;;;;;;;16.10;8.67;;;;;;;-1.63;81.88;101104.66;5011060;28;20053;-81
2022/02/13 06:50:11;;;;;;;16.13;8.97;;;;;;;-1.59;81.65;101100.53;4974392;28;20046;-81
2022/02/13 06:52:37;;;;;;;17.13;10.07;;;;;;;-1.55;81.87;101099.88;4996366;28;20433;-81
2022/02/13 06:55:02;;;;;;;15.60;8.40;;;;;;;-1.47;81.97;101098.56;5012956;28;20038;-82
2022/02/13 06:57:27;;;;;;;14.80;8.63;;;;;;;-1.38;81.23;101104.22;5013388;28;20061;-81
2022/02/13 06:59:53;;;;;;;16.00;8.47;;;;;;;-1.30;81.41;101102.03;5009535;28;20049;-81
2022/02/13 07:02:19;;;;;;;17.27;8.50;;;;;;;-1.21;81.80;101099.00;5012887;28;20050;-81
2022/02/13 07:04:44;;;;;;;16.83;9.13;;;;;;;-1.10;80.83;101090.09;5011004;28;20042;-81
2022/02/13 07:07:09;;;;;;;13.40;8.73;;;;;;;-0.99;80.78;101088.03;5010803;28;20037;-81
2022/02/13 07:09:35;;;;;;;13.37;8.00;;;;;;;-0.96;81.05;101089.06;5012420;28;20041;-81
2022/02/13 07:12:05;;;;;;;12.20;8.07;;;;;;;-0.86;80.62;101094.66;4992250;28;20089;-81
2022/02/13 07:14:34;;;;;;;13.33;8.87;;;;;;;-0.80;80.39;101090.69;4994959;28;20034;-81
2022/02/13 07:17:00;;;;;;;17.43;9.13;;;;;;;-0.76;80.12;101091.72;5011141;28;20092;-81
2022/02/13 07:19:25;;;;;;;13.83;8.70;;;;;;;-0.66;80.21;101099.13;5009290;28;20498;-81
2022/02/13 07:21:51;;;;;;;13.07;7.87;;;;;;;-0.58;80.70;101086.53;5012372;28;20044;-81
2022/02/13 07:24:16;;;;;;;12.67;7.83;;;;;;;-0.52;79.86;101082.53;5010455;28;20126;-81
2022/02/13 07:26:41;;;;;;;13.57;9.07;;;;;;;-0.43;79.75;101076.00;5011188;28;20522;-81
2022/02/13 07:29:09;;;;;;;14.00;8.97;;;;;;;-0.35;80.09;101074.66;5009563;28;20485;-82
2022/02/13 07:31:35;;;;;;;13.93;8.30;;;;;;;-0.25;80.02;101074.25;5005893;28;20041;-82
2022/02/13 07:34:01;;;;;;;14.77;8.30;;;;;;;-0.22;79.12;101067.50;4978176;28;20466;-82
2022/02/13 07:36:26;;;;;;;14.93;8.23;;;;;;;-0.20;79.29;101062.41;5008088;28;20061;-81
2022/02/13 07:38:52;;;;;;;13.53;8.37;;;;;;;-0.11;79.12;101073.19;5012086;28;20053;-81
2022/02/13 07:41:17;;;;;;;13.07;8.40;;;;;;;-0.02;78.86;101063.22;4992105;28;20046;-81
2022/02/13 07:43:43;;;;;;;12.83;8.50;;;;;;;0.09;78.54;101057.63;5012139;28;20088;-82
2022/02/13 07:46:08;;;;;;;16.67;9.37;;;;;;;0.18;78.53;101064.13;5009689;28;20038;-82
2022/02/13 07:48:33;;;;;;;15.03;9.20;;;;;;;0.25;78.52;101057.47;5009258;28;20143;-81
2022/02/13 07:51:00;;;;;;;17.77;9.07;;;;;;;0.34;77.85;101060.50;5011590;28;20038;-81
2022/02/13 07:53:25;;;;;;;13.93;9.10;;;;;;;0.44;78.02;101059.16;5004699;28;20088;-82
2022/02/13 07:55:50;;;;;;;13.10;8.90;;;;;;;0.55;77.77;101054.41;5008814;28;20042;-81
2022/02/13 07:58:16;;;;;;;13.30;8.83;;;;;;;0.60;77.29;101055.50;5010049;28;20027;-81
2022/02/13 08:00:41;;;;;;;13.82;9.32;;;;;;;0.70;76.88;101055.06;5007947;28;20061;-81
2022/02/13 08:03:06;;;;;;;16.38;10.32;;;;;;;0.74;77.14;101062.19;4990565;28;20039;-81
2022/02/13 08:05:32;;;;;;;15.27;8.87;;;;;;;0.82;77.27;101059.91;5009193;28;20391;-81
2022/02/13 08:07:58;;;;;;;16.50;9.02;;;;;;;0.92;76.75;101042.97;5009252;28;20054;-82
2022/02/13 08:10:23;;;;;;;15.25;8.63;;;;;;;1.00;76.55;101046.78;4990820;28;20065;-82
2022/02/13 08:12:48;;;;;;;15.30;9.05;;;;;;;1.06;76.40;101045.31;4970889;28;20047;-82
2022/02/13 08:15:14;;;;;;;12.10;8.10;;;;;;;1.14;76.46;101048.22;5008008;28;20041;-82
2022/02/13 08:17:39;;;;;;;14.80;8.57;;;;;;;1.21;75.74;101039.84;4975993;28;20022;-81
2022/02/13 08:20:07;;;;;;;12.13;8.10;;;;;;;1.33;75.89;101043.75;5008452;28;20041;-82
2022/02/13 08:22:37;;;;;;;14.07;7.80;;;;;;;1.43;75.49;101041.56;5009769;28;20036;-82
2022/02/13 08:25:03;;;;;;;12.38;8.35;;;;;;;1.49;75.16;101043.53;5003302;28;20053;-82
2022/02/13 08:27:29;;;;;;;12.48;7.90;;;;;;;1.56;75.06;101045.53;4974749;28;20033;-82
2022/02/13 08:29:54;;;;;;;12.35;7.85;;;;;;;1.65;74.24;101048.50;4993072;28;20044;-82
2022/02/13 08:32:20;;;;;;;13.48;7.90;;;;;;;1.74;73.90;101041.03;5008816;28;20060;-81
2022/02/13 08:34:45;;;;;;;12.35;7.88;;;;;;;1.85;74.01;101045.75;5003181;28;20038;-82
2022/02/13 08:37:12;;;;;;;13.38;7.15;;;;;;;1.94;73.57;101043.50;5008981;28;20061;-81
2022/02/13 08:39:37;;;;;;;12.45;7.90;;;;;;;2.02;73.06;101039.47;5008787;28;20060;-82
2022/02/13 08:42:03;;;;;;;10.25;6.32;;;;;;;2.07;71.71;101037.00;5007108;28;20125;-82
2022/02/13 08:44:28;;;;;;;16.15;7.78;;;;;;;2.10;70.76;101022.41;5008830;28;20033;-82
2022/02/13 08:46:54;;;;;;;10.63;6.88;;;;;;;2.24;70.84;101020.28;4990518;28;20038;-82
2022/02/13 08:49:19;;;;;;;12.13;7.72;;;;;;;2.35;71.65;101024.13;5002323;28;20026;-82
2022/02/13 08:51:45;;;;;;;11.50;7.18;;;;;;;2.35;69.67;101007.63;5007880;28;20050;-82
2022/02/13 08:54:10;;;;;;;12.75;7.43;;;;;;;2.42;70.45;101004.41;4991269;28;20045;-82
2022/02/13 08:56:35;;;;;;;12.02;6.85;;;;;;;2.51;69.34;101006.44;5002452;28;20046;-82
2022/02/13 08:59:01;;;;;;;10.85;6.50;;;;;;;2.51;68.63;101004.72;4991926;28;20042;-82
2022/02/13 09:01:27;;;;;;;14.25;7.97;;;;;;;2.61;70.08;101005.91;5006941;28;20038;-82
2022/02/13 09:03:52;;;;;;;10.20;6.68;;;;;;;2.68;68.84;101002.69;5005754;28;20117;-82
2022/02/13 09:06:17;;;;;;;11.93;7.65;;;;;;;2.75;68.77;101009.88;4984337;28;20030;-82
2022/02/13 09:08:43;;;;;;;11.35;6.60;;;;;;;2.82;68.00;101016.16;5008186;28;20029;-81
2022/02/13 09:11:08;;;;;;;11.90;7.63;;;;;;;2.87;67.46;101009.38;4988771;28;20514;-82
2022/02/13 09:13:34;;;;;;;10.80;6.07;;;;;;;2.99;67.39;101015.00;5006056;28;20503;-82
2022/02/13 09:15:59;;;;;;;11.07;6.72;;;;;;;3.04;67.29;101010.81;5007505;28;20057;-82
2022/02/13 09:18:24;;;;;;;13.48;7.50;;;;;;;3.18;67.40;101011.25;5004838;28;20065;-81
2022/02/13 09:20:50;;;;;;;11.75;7.03;;;;;;;3.28;67.16;101004.59;5006116;28;20125;-82
2022/02/13 09:23:17;;;;;;;14.40;6.85;;;;;;;3.26;66.18;100998.44;5006066;28;20047;-82
2022/02/13 09:25:43;;;;;;;15.05;7.97;;;;;;;3.36;66.80;100997.91;4987607;28;20038;-82
2022/02/13 09:28:09;;;;;;;11.50;6.95;;;;;;;3.40;66.65;100991.03;5007979;28;20061;-82
2022/02/13 09:30:34;;;;;;;11.13;6.63;;;;;;;3.40;66.18;100986.69;5005232;28;20133;-82
2022/02/13 09:32:59;;;;;;;13.02;6.82;;;;;;;3.55;66.85;100986.28;5006934;28;20050;-81
2022/02/13 09:35:25;;;;;;;9.20;6.30;;;;;;;3.61;65.73;100983.84;5005475;28;20034;-82
2022/02/13 09:37:50;;;;;;;14.80;6.75;;;;;;;3.71;66.17;100980.66;5007904;28;20034;-82
2022/02/13 09:40:17;;;;;;;9.98;6.00;;;;;;;3.78;65.55;100984.34;5000855;28;20034;-82
2022/02/13 09:42:44;;;;;;;10.40;6.78;;;;;;;3.81;64.61;100987.03;5007248;28;20038;-82
2022/02/13 09:45:10;;;;;;;9.05;5.70;;;;;;;3.82;64.37;100986.19;5010990;28;20041;-81
2022/02/13 09:47:37;;;;;;;13.38;5.60;;;;;;;3.92;62.87;100980.38;4991583;28;20411;-82
2022/02/13 09:50:03;;;;;;;9.57;5.07;;;;;;;3.99;62.75;100980.56;5005541;28;20044;-81
2022/02/13 09:52:30;;;;;;;9.10;5.13;;;;;;;4.11;61.85;100954.78;5010317;28;20120;-82
2022/02/13 09:54:55;;;;;;;9.05;5.18;;;;;;;4.23;62.06;100962.06;5010925;28;20463;-82
2022/02/13 10:00:05;;;;;;;9.25;5.57;;;;;;;4.38;61.25;100958.13;4994214;28;20426;-82
2022/02/13 10:02:42;;;;;;;8.27;4.82;;;;;;;4.42;60.76;100963.41;5011029;28;20037;-82
2022/02/13 10:05:11;;;;;;;9.45;5.20;;;;;;;4.52;59.67;100965.44;5010178;28;20405;-83
2022/02/13 10:07:38;;;;;;;8.15;4.68;;;;;;;4.61;60.44;100961.31;5007220;28;20058;-82
2022/02/13 10:10:09;;;;;;;8.27;4.90;;;;;;;4.73;59.81;100955.50;5010762;28;20124;-83
2022/02/13 10:12:42;;;;;;;8.15;4.78;;;;;;;4.80;59.67;100956.53;4992484;28;20037;-83
2022/02/13 10:15:29;;;;;;;9.73;5.05;;;;;;;4.87;59.26;100941.88;5006786;28;20121;-82
2022/02/13 10:18:05;;;;;;;9.07;5.28;;;;;;;4.92;57.13;100946.34;5003566;28;20037;-82
2022/02/13 10:20:32;;;;;;;8.40;4.85;;;;;;;4.94;56.37;100938.56;4990829;28;20046;-82
2022/02/13 10:23:13;;;;;;;8.77;4.93;;;;;;;5.05;56.01;100942.28;4971316;28;20042;-83
2022/02/13 10:25:40;;;;;;;7.47;4.70;;;;;;;5.13;56.63;100937.22;5010252;28;20041;-82
2022/02/13 10:28:16;;;;;;;6.88;4.38;;;;;;;5.25;56.40;100933.16;4990643;28;20041;-82
2022/02/13 10:30:46;;;;;;;11.35;5.45;;;;;;;5.39;57.36;100922.09;4991435;28;20042;-82
2022/02/13 10:33:23;;;;;;;7.38;4.40;;;;;;;5.41;55.39;100915.16;5010825;28;20034;-82
2022/02/13 10:36:02;;;;;;;8.45;4.25;;;;;;;5.54;55.84;100917.19;4988569;28;20053;-82
2022/02/13 10:38:30;;;;;;;8.48;5.15;;;;;;;5.60;55.62;100912.06;5006129;28;20038;-83
2022/02/13 10:41:13;;;;;;;8.55;4.95;;;;;;;5.64;55.25;100915.66;4974715;28;20035;-83
2022/02/13 10:43:58;;;;;;;6.18;3.90;;;;;;;5.76;54.88;100900.16;5006864;28;20034;-83
2022/02/13 10:46:36;;;;;;;6.85;4.43;;;;;;;5.83;54.84;100903.78;5006345;28;20121;-83
2022/02/13 10:49:03;;;;;;;6.70;4.30;;;;;;;5.94;55.86;100897.03;4990317;28;20038;-83
2022/02/13 10:51:29;;;;;;;7.72;4.00;;;;;;;6.00;55.48;100901.50;5009507;28;20045;-82
2022/02/13 10:53:55;;;;;;;9.32;5.15;;;;;;;6.08;54.82;100892.06;5008597;28;20479;-83
2022/02/13 10:56:21;;;;;;;8.18;4.28;;;;;;;6.12;54.71;100891.25;4988560;28;20557;-82
2022/02/13 10:58:46;;;;;;;7.55;3.75;;;;;;;6.22;54.81;100892.31;4971139;28;20031;-82
2022/02/13 11:01:15;;;;;;;7.68;3.90;;;;;;;6.25;53.61;100889.72;4992321;28;20092;-83
2022/02/13 11:03:44;;;;;;;7.07;4.32;;;;;;;6.37;55.07;100876.84;5005034;28;20058;-82
2022/02/13 11:06:10;;;;;;;6.82;3.88;;;;;;;6.36;52.80;100885.53;5010035;28;20072;-83
2022/02/13 11:08:42;;;;;;;7.22;3.58;;;;;;;6.52;53.52;100876.19;4974489;28;20038;-83
2022/02/13 11:11:10;;;;;;;6.25;3.08;;;;;;;6.59;52.76;100860.56;5007177;28;20070;-82
2022/02/13 11:13:36;;;;;;;6.75;3.47;;;;;;;6.59;51.57;100868.44;5006199;28;20406;-83
2022/02/13 11:16:29;;;;;;;7.07;3.15;;;;;;;6.72;51.56;100861.66;5009318;28;20038;-82
2022/02/13 11:18:58;;;;;;;7.93;3.88;;;;;;;6.73;50.91;100849.41;4976701;28;20185;-82